createdAt,value
2022-08-23T00:01:21.093Z,51.28
2022-08-23T00:03:49.269Z,51.38
2022-08-23T00:06:18.301Z,52.10
2022-08-23T00:08:48.593Z,51.52
2022-08-23T00:11:29.620Z,51.64
2022-08-23T00:13:58.623Z,51.45
2022-08-23T00:16:26.610Z,51.71
2022-08-23T00:18:54.621Z,51.80
2022-08-23T00:21:23.288Z,51.73
2022-08-23T00:23:51.108Z,51.62
2022-08-23T00:26:20.535Z,52.17
2022-08-23T00:28:50.916Z,51.89
2022-08-23T00:31:19.636Z,52.01
2022-08-23T00:33:47.495Z,52.16
2022-08-23T00:36:15.583Z,52.02
2022-08-23T00:38:43.549Z,52.66
2022-08-23T00:41:11.320Z,52.30
2022-08-23T00:44:00.291Z,52.66
2022-08-23T00:47:01.141Z,52.72
2022-08-23T00:49:30.581Z,52.43
2022-08-23T00:52:03.513Z,52.65
2022-08-23T00:54:33.126Z,52.68
2022-08-23T00:57:05.800Z,53.22
2022-08-23T00:59:33.989Z,53.06
2022-08-23T01:04:34.361Z,53.28
2022-08-23T01:07:11.008Z,53.37
2022-08-23T01:09:41.964Z,52.96
2022-08-23T01:12:16.334Z,53.52
2022-08-23T01:14:52.588Z,53.17
2022-08-23T01:17:26.108Z,53.38
2022-08-23T01:19:57.889Z,53.44
2022-08-23T01:22:34.260Z,53.24
2022-08-23T01:25:08.916Z,53.58
2022-08-23T01:27:43.127Z,53.56
2022-08-23T01:30:16.863Z,53.82
2022-08-23T01:32:53.834Z,53.58
2022-08-23T01:37:59.906Z,53.97
2022-08-23T01:40:29.758Z,54.22
2022-08-23T01:42:57.656Z,54.21
2022-08-23T01:45:25.545Z,54.07
2022-08-23T01:47:53.487Z,53.99
2022-08-23T01:50:22.683Z,54.21
2022-08-23T01:52:50.664Z,54.00
2022-08-23T01:55:21.814Z,54.64
2022-08-23T01:57:56.825Z,54.45
2022-08-23T02:00:29.828Z,55.03
2022-08-23T02:02:57.925Z,54.88
2022-08-23T02:05:26.862Z,54.84
2022-08-23T02:07:55.703Z,55.22
2022-08-23T02:10:24.241Z,55.25
2022-08-23T02:12:53.771Z,55.22
2022-08-23T02:15:23.224Z,55.33
2022-08-23T02:17:51.122Z,55.13
2022-08-23T02:20:19.358Z,55.09
2022-08-23T02:22:47.252Z,55.01
2022-08-23T02:25:15.124Z,55.13
2022-08-23T02:27:43.977Z,55.49
2022-08-23T02:30:15.333Z,55.46
2022-08-23T02:32:43.986Z,55.55
2022-08-23T02:35:13.190Z,55.97
2022-08-23T02:37:40.994Z,55.96
2022-08-23T02:40:09.929Z,55.95
2022-08-23T02:42:38.901Z,56.41
2022-08-23T02:45:09.725Z,56.38
2022-08-23T02:47:46.308Z,56.65
2022-08-23T02:50:20.501Z,56.79
2022-08-23T02:52:48.802Z,57.03
2022-08-23T02:55:17.070Z,57.10
2022-08-23T02:57:45.069Z,57.15
2022-08-23T03:00:16.078Z,57.68
2022-08-23T03:02:45.971Z,57.63
2022-08-23T03:05:15.555Z,58.39
2022-08-23T03:07:44.204Z,58.34
2022-08-23T03:10:13.234Z,58.64
2022-08-23T03:12:47.485Z,58.47
2022-08-23T03:15:15.592Z,58.99
2022-08-23T03:17:43.435Z,58.86
2022-08-23T03:20:13.136Z,58.81
2022-08-23T03:22:41.757Z,58.85
2022-08-23T03:25:19.219Z,58.80
2022-08-23T03:28:04.535Z,58.87
2022-08-23T03:30:33.912Z,59.03
2022-08-23T03:33:02.559Z,59.12
2022-08-23T03:35:33.228Z,58.71
2022-08-23T03:38:02.191Z,59.30
2022-08-23T03:40:30.318Z,59.41
2022-08-23T03:42:58.238Z,59.68
2022-08-23T03:45:28.711Z,59.75
2022-08-23T03:47:56.782Z,59.05
2022-08-23T03:50:24.834Z,59.57
2022-08-23T03:52:55.372Z,59.78
2022-08-23T03:55:23.229Z,59.95
2022-08-23T03:57:52.259Z,59.96
2022-08-23T04:00:22.042Z,59.54
2022-08-23T04:02:52.787Z,59.83
2022-08-23T04:05:22.319Z,59.50
2022-08-23T04:08:13.214Z,59.68
2022-08-23T04:10:43.671Z,59.64
2022-08-23T04:13:12.001Z,60.42
2022-08-23T04:15:39.925Z,60.19
2022-08-23T04:18:11.550Z,60.28
2022-08-23T04:20:39.627Z,60.35
2022-08-23T04:23:07.509Z,60.62
2022-08-23T04:25:47.617Z,60.81
2022-08-23T04:28:16.237Z,60.87
2022-08-23T04:30:44.741Z,60.88
2022-08-23T04:33:18.239Z,60.64
2022-08-23T04:35:47.386Z,60.48
2022-08-23T04:38:24.270Z,60.31
2022-08-23T04:41:11.244Z,60.30
2022-08-23T04:43:40.318Z,59.91
2022-08-23T04:46:10.214Z,60.08
2022-08-23T04:48:38.376Z,59.98
2022-08-23T04:51:06.407Z,60.16
2022-08-23T04:53:37.248Z,59.98
2022-08-23T04:56:24.856Z,60.14
2022-08-23T04:58:54.134Z,59.79
2022-08-23T05:01:25.459Z,59.22
2022-08-23T05:03:55.549Z,59.68
2022-08-23T05:06:25.842Z,59.73
2022-08-23T05:08:54.081Z,59.02
2022-08-23T05:11:22.675Z,59.02
2022-08-23T05:13:52.172Z,58.58
2022-08-23T05:16:21.366Z,58.41
2022-08-23T05:18:57.159Z,58.91
2022-08-23T05:21:26.280Z,58.62
2022-08-23T05:23:55.294Z,59.11
2022-08-23T05:26:26.053Z,59.17
2022-08-23T05:28:55.271Z,58.31
2022-08-23T05:31:30.357Z,58.35
2022-08-23T05:34:00.489Z,57.93
2022-08-23T05:36:34.632Z,58.20
2022-08-23T05:39:02.782Z,57.52
2022-08-23T05:41:37.971Z,58.32
2022-08-23T05:44:10.323Z,58.00
2022-08-23T05:46:42.222Z,57.87
2022-08-23T05:49:30.076Z,58.28
2022-08-23T05:51:59.237Z,57.80
2022-08-23T05:54:31.791Z,58.20
2022-08-23T05:57:17.441Z,58.05
2022-08-23T05:59:54.398Z,57.97
2022-08-23T06:02:22.417Z,57.29
2022-08-23T06:04:52.423Z,58.09
2022-08-23T06:07:24.065Z,57.49
2022-08-23T06:09:52.558Z,57.75
2022-08-23T06:12:20.475Z,57.87
2022-08-23T06:14:50.263Z,58.20
2022-08-23T06:17:21.377Z,58.66
2022-08-23T06:19:52.390Z,58.52
2022-08-23T06:22:27.061Z,57.93
2022-08-23T06:24:55.047Z,57.78
2022-08-23T06:27:38.083Z,57.33
2022-08-23T06:30:08.675Z,57.31
2022-08-23T06:32:47.018Z,56.79
2022-08-23T06:38:20.849Z,56.47
2022-08-23T06:41:17.692Z,55.80
2022-08-23T06:44:02.663Z,55.86
2022-08-23T06:46:35.912Z,55.58
2022-08-23T06:49:05.400Z,55.25
2022-08-23T06:51:36.038Z,55.73
2022-08-23T06:54:35.538Z,55.55
2022-08-23T06:57:23.063Z,56.45
2022-08-23T07:00:11.273Z,56.60
2022-08-23T07:03:06.399Z,56.48
2022-08-23T07:06:09.419Z,56.63
2022-08-23T07:11:06.883Z,56.39
2022-08-23T07:13:34.748Z,56.60
2022-08-23T07:16:03.760Z,56.33
2022-08-23T07:18:35.188Z,55.74
2022-08-23T07:21:05.585Z,55.54
2022-08-23T07:23:35.042Z,55.68
2022-08-23T07:26:10.286Z,55.19
2022-08-23T07:28:39.590Z,54.88
2022-08-23T07:31:11.357Z,55.11
2022-08-23T07:33:45.136Z,54.40
2022-08-23T07:36:19.576Z,54.20
2022-08-23T07:38:48.102Z,53.82
2022-08-23T07:41:17.762Z,53.36
2022-08-23T07:43:46.536Z,52.98
2022-08-23T07:46:16.080Z,52.62
2022-08-23T07:48:54.961Z,53.02
2022-08-23T07:51:34.504Z,51.81
2022-08-23T07:54:04.297Z,51.56
2022-08-23T07:56:33.107Z,50.66
2022-08-23T07:59:18.195Z,50.44
2022-08-23T08:01:56.595Z,50.41
2022-08-23T08:04:26.839Z,50.07
2022-08-23T08:07:17.728Z,49.94
2022-08-23T08:09:47.192Z,49.53
2022-08-23T08:12:16.245Z,49.25
2022-08-23T08:14:44.520Z,49.02
2022-08-23T08:17:15.452Z,49.29
2022-08-23T08:20:03.474Z,47.62
2022-08-23T08:22:58.689Z,46.72
2022-08-23T08:25:46.750Z,46.04
2022-08-23T08:28:17.607Z,45.48
2022-08-23T08:30:45.515Z,45.78
2022-08-23T08:33:14.839Z,46.15
2022-08-23T08:35:58.003Z,44.56
2022-08-23T08:38:32.070Z,44.27
2022-08-23T08:41:12.782Z,43.67
2022-08-23T08:43:58.771Z,43.80
2022-08-23T08:46:43.500Z,42.56
2022-08-23T08:49:17.532Z,42.84
2022-08-23T08:51:54.192Z,42.15
2022-08-23T08:54:27.321Z,42.17
2022-08-23T08:56:59.081Z,42.31
2022-08-23T08:59:31.720Z,41.35
2022-08-23T09:02:00.110Z,41.86
2022-08-23T09:04:38.816Z,41.57
2022-08-23T09:07:16.469Z,41.29
2022-08-23T09:10:04.754Z,41.37
2022-08-23T09:12:44.916Z,40.90
2022-08-23T09:15:25.367Z,40.91
2022-08-23T09:17:59.380Z,40.47
2022-08-23T09:20:33.141Z,40.59
2022-08-23T09:23:08.708Z,40.17
2022-08-23T09:25:39.054Z,40.27
2022-08-23T09:28:15.394Z,39.54
2022-08-23T09:30:50.223Z,39.51
2022-08-23T09:33:21.708Z,39.79
2022-08-23T09:36:14.178Z,39.52
2022-08-23T09:38:54.833Z,39.06
2022-08-23T09:41:28.453Z,39.82
2022-08-23T09:44:01.754Z,39.57
2022-08-23T09:46:33.327Z,39.32
2022-08-23T09:49:23.685Z,39.03
2022-08-23T09:51:56.771Z,39.10
2022-08-23T09:54:31.996Z,38.96
2022-08-23T09:57:03.855Z,39.38
2022-08-23T09:59:44.394Z,39.33
2022-08-23T10:02:25.128Z,39.51
2022-08-23T10:05:02.790Z,38.75
2022-08-23T10:07:42.420Z,38.22
2022-08-23T10:10:23.788Z,38.22
2022-08-23T10:12:56.462Z,38.10
2022-08-23T10:15:36.880Z,37.64
2022-08-23T10:18:12.126Z,38.18
2022-08-23T10:20:48.954Z,38.07
2022-08-23T10:23:24.806Z,38.03
2022-08-23T10:25:59.182Z,37.81
2022-08-23T10:28:58.113Z,37.53
2022-08-23T10:31:36.646Z,37.46
2022-08-23T10:34:29.977Z,36.38
2022-08-23T10:37:14.290Z,36.85
2022-08-23T10:39:48.028Z,36.92
2022-08-23T10:42:27.181Z,36.52
2022-08-23T10:45:04.724Z,36.05
2022-08-23T10:47:38.177Z,36.05
2022-08-23T10:50:13.636Z,36.20
2022-08-23T10:52:53.867Z,36.62
2022-08-23T10:55:39.127Z,36.37
2022-08-23T10:58:12.110Z,34.71
2022-08-23T11:00:41.467Z,34.21
2022-08-23T11:03:19.284Z,34.88
2022-08-23T11:06:21.969Z,34.90
2022-08-23T11:08:58.228Z,35.63
2022-08-23T11:11:43.412Z,34.58
2022-08-23T11:14:26.897Z,35.60
2022-08-23T11:17:00.530Z,35.92
2022-08-23T11:19:50.476Z,35.07
2022-08-23T11:22:26.091Z,34.97
2022-08-23T11:25:00.839Z,34.71
2022-08-23T11:27:40.435Z,34.79
2022-08-23T11:30:46.447Z,35.19
2022-08-23T11:33:23.887Z,35.19
2022-08-23T11:35:56.603Z,34.87
2022-08-23T11:39:07.752Z,34.29
2022-08-23T11:41:37.533Z,34.40
2022-08-23T11:44:24.035Z,34.51
2022-08-23T11:47:00.535Z,35.15
2022-08-23T11:50:02.431Z,34.91
2022-08-23T11:52:55.010Z,34.60
2022-08-23T11:55:43.939Z,34.41
2022-08-23T11:58:23.653Z,34.51
2022-08-23T12:01:07.652Z,34.54
2022-08-23T12:03:58.645Z,34.31
2022-08-23T12:06:50.467Z,33.76
2022-08-23T12:09:51.055Z,33.93
2022-08-23T12:12:34.851Z,33.68
2022-08-23T12:15:09.640Z,33.16
2022-08-23T12:18:09.047Z,32.77
2022-08-23T12:20:38.750Z,33.61
2022-08-23T12:23:21.196Z,33.27
2022-08-23T12:26:00.836Z,33.22
2022-08-23T12:28:44.856Z,33.17
2022-08-23T12:31:26.524Z,33.17
2022-08-23T12:34:07.443Z,33.21
2022-08-23T12:36:42.224Z,32.85
2022-08-23T12:39:23.278Z,32.86
2022-08-23T12:41:56.585Z,32.38
2022-08-23T12:44:30.557Z,31.34
2022-08-23T12:47:13.562Z,31.12
2022-08-23T12:49:42.297Z,31.85
2022-08-23T12:52:13.673Z,32.57
2022-08-23T12:54:43.812Z,33.34
2022-08-23T12:57:15.893Z,32.61
2022-08-23T12:59:53.176Z,33.41
2022-08-23T13:02:25.829Z,32.08
2022-08-23T13:04:59.574Z,31.70
2022-08-23T13:07:29.038Z,32.25
2022-08-23T13:09:57.706Z,32.01
2022-08-23T13:12:28.062Z,32.03
2022-08-23T13:14:58.821Z,32.10
2022-08-23T13:17:33.083Z,32.22
2022-08-23T13:20:28.340Z,31.51
2022-08-23T13:23:01.157Z,30.76
2022-08-23T13:25:32.726Z,30.71
2022-08-23T13:28:03.130Z,31.61
2022-08-23T13:30:33.277Z,31.66
2022-08-23T13:33:28.329Z,31.49
2022-08-23T13:36:13.239Z,31.93
2022-08-23T13:38:45.127Z,31.12
2022-08-23T13:41:32.004Z,31.87
2022-08-23T13:44:08.407Z,31.45
2022-08-23T13:46:45.205Z,31.45
2022-08-23T13:49:18.919Z,31.40
2022-08-23T13:52:38.060Z,31.30
2022-08-23T13:54:57.000Z,31.40
2022-08-23T13:57:29.583Z,31.72
2022-08-23T13:59:59.851Z,31.25
2022-08-23T14:02:29.467Z,30.75
2022-08-23T14:04:57.435Z,30.17
2022-08-23T14:07:25.260Z,29.70
2022-08-23T14:09:55.123Z,30.21
2022-08-23T14:12:27.877Z,30.26
2022-08-23T14:14:57.218Z,30.64
2022-08-23T14:17:25.469Z,30.39
2022-08-23T14:20:31.799Z,30.35
2022-08-23T14:22:42.021Z,29.44
2022-08-23T14:25:12.374Z,29.59
2022-08-23T14:27:42.972Z,29.62
2022-08-23T14:30:13.946Z,29.36
2022-08-23T14:32:42.040Z,29.37
2022-08-23T14:35:11.077Z,29.42
2022-08-23T14:40:27.687Z,29.52
2022-08-23T14:42:56.956Z,29.79
2022-08-23T14:45:25.059Z,29.53
2022-08-23T14:47:52.904Z,29.93
2022-08-23T14:50:20.896Z,30.31
2022-08-23T14:52:49.150Z,29.57
2022-08-23T14:55:17.078Z,29.68
2022-08-23T14:57:45.396Z,29.04
2022-08-23T15:00:16.136Z,29.30
2022-08-23T15:02:45.519Z,28.61
2022-08-23T15:05:13.812Z,28.63
2022-08-23T15:07:41.897Z,28.83
2022-08-23T15:13:28.463Z,28.74
2022-08-23T15:15:54.668Z,27.66
2022-08-23T15:18:22.898Z,28.34
2022-08-23T15:20:52.429Z,28.48
2022-08-23T15:23:21.370Z,28.63
2022-08-23T15:25:49.918Z,28.63
2022-08-23T15:28:20.884Z,28.87
2022-08-23T15:30:50.124Z,28.54
2022-08-23T15:33:24.743Z,28.24
2022-08-23T15:35:58.701Z,27.96
2022-08-23T15:38:26.766Z,27.77
2022-08-23T15:40:55.634Z,26.63
2022-08-23T15:43:25.859Z,26.76
2022-08-23T15:46:06.217Z,26.13
2022-08-23T15:48:38.463Z,25.99
2022-08-23T15:51:07.302Z,26.09
2022-08-23T15:53:35.351Z,25.88
2022-08-23T15:56:05.801Z,24.98
2022-08-23T15:58:33.954Z,25.39
2022-08-23T16:01:02.644Z,25.56
2022-08-23T16:03:30.763Z,25.44
2022-08-23T16:06:00.304Z,26.33
2022-08-23T16:08:30.211Z,25.55
2022-08-23T16:10:59.323Z,26.10
2022-08-23T16:13:27.885Z,25.00
2022-08-23T16:15:56.497Z,25.46
2022-08-23T16:18:24.943Z,24.16
2022-08-23T16:20:54.549Z,24.63
2022-08-23T16:23:26.411Z,24.36
2022-08-23T16:25:56.883Z,24.04
2022-08-23T16:28:28.839Z,24.28
2022-08-23T16:30:56.876Z,25.32
2022-08-23T16:33:24.808Z,25.28
2022-08-23T16:35:52.693Z,25.15
2022-08-23T16:38:20.640Z,25.33
2022-08-23T16:40:49.831Z,25.15
2022-08-23T16:43:17.682Z,24.91
2022-08-23T16:45:45.590Z,24.71
2022-08-23T16:48:14.941Z,24.22
2022-08-23T16:50:42.938Z,24.19
2022-08-23T16:53:11.122Z,23.89
2022-08-23T16:55:40.105Z,23.86
2022-08-23T16:58:09.534Z,24.17
2022-08-23T17:00:38.602Z,24.42
2022-08-23T17:03:07.604Z,24.03
2022-08-23T17:05:35.723Z,23.88
2022-08-23T17:08:03.862Z,23.52
2022-08-23T17:10:33.618Z,24.21
2022-08-23T17:13:02.591Z,24.17
2022-08-23T17:15:33.896Z,24.72
2022-08-23T17:18:02.943Z,24.35
2022-08-23T17:20:33.434Z,24.97
2022-08-23T17:23:01.449Z,24.86
2022-08-23T17:25:33.724Z,24.97
2022-08-23T17:28:01.692Z,26.42
2022-08-23T17:30:31.841Z,27.33
2022-08-23T17:33:01.589Z,27.92
2022-08-23T17:35:33.992Z,28.48
2022-08-23T17:38:05.027Z,29.28
2022-08-23T17:40:40.018Z,29.42
2022-08-23T17:43:08.421Z,29.79
2022-08-23T17:45:43.120Z,30.34
2022-08-23T17:48:11.888Z,30.62
2022-08-23T17:50:40.416Z,31.26
2022-08-23T17:53:08.288Z,31.31
2022-08-23T17:55:36.813Z,31.31
2022-08-23T17:58:05.290Z,31.75
2022-08-23T18:00:34.256Z,31.87
2022-08-23T18:03:03.815Z,31.80
2022-08-23T18:05:34.171Z,32.31
2022-08-23T18:08:02.279Z,32.74
2022-08-23T18:10:30.942Z,32.87
2022-08-23T18:12:59.280Z,33.06
2022-08-23T18:15:28.717Z,33.57
2022-08-23T18:17:58.359Z,33.65
2022-08-23T18:20:29.155Z,34.01
2022-08-23T18:22:58.875Z,33.93
2022-08-23T18:25:27.698Z,33.98
2022-08-23T18:28:07.394Z,34.30
2022-08-23T18:30:36.473Z,34.59
2022-08-23T18:33:05.230Z,34.86
2022-08-23T18:35:34.529Z,35.03
2022-08-23T18:38:02.468Z,35.47
2022-08-23T18:40:31.090Z,35.60
2022-08-23T18:42:59.208Z,35.67
2022-08-23T18:45:28.963Z,35.87
2022-08-23T18:47:56.824Z,36.16
2022-08-23T18:50:24.856Z,36.15
2022-08-23T18:52:54.044Z,36.67
2022-08-23T18:55:22.014Z,36.77
2022-08-23T18:57:49.894Z,37.23
2022-08-23T19:00:17.933Z,37.01
2022-08-23T19:02:46.223Z,37.33
2022-08-23T19:05:14.154Z,37.63
2022-08-23T19:07:41.997Z,37.81
2022-08-23T19:10:18.352Z,37.67
2022-08-23T19:12:51.654Z,37.89
2022-08-23T19:15:32.090Z,38.07
2022-08-23T19:17:59.956Z,38.30
2022-08-23T19:20:28.665Z,38.70
2022-08-23T19:22:57.792Z,38.43
2022-08-23T19:25:27.774Z,38.80
2022-08-23T19:27:59.528Z,38.95
2022-08-23T19:30:28.567Z,38.73
2022-08-23T19:32:56.808Z,39.20
2022-08-23T19:35:24.774Z,39.06
2022-08-23T19:37:52.637Z,39.42
2022-08-23T19:40:20.666Z,39.53
2022-08-23T19:42:50.040Z,39.66
2022-08-23T19:45:19.071Z,39.64
2022-08-23T19:47:47.322Z,39.70
2022-08-23T19:50:15.390Z,39.74
2022-08-23T19:52:51.580Z,39.93
2022-08-23T19:55:19.641Z,40.12
2022-08-23T19:57:48.785Z,40.20
2022-08-23T20:00:19.616Z,40.38
2022-08-23T20:02:48.184Z,40.32
2022-08-23T20:05:16.656Z,40.27
2022-08-23T20:07:44.769Z,40.18
2022-08-23T20:10:14.490Z,40.64
2022-08-23T20:12:42.770Z,41.01
2022-08-23T20:15:13.600Z,40.90
2022-08-23T20:17:42.087Z,41.18
2022-08-23T20:20:13.712Z,41.00
2022-08-23T20:22:59.499Z,40.89
2022-08-23T20:25:30.717Z,41.11
2022-08-23T20:27:59.300Z,41.05
2022-08-23T20:30:28.490Z,41.66
2022-08-23T20:32:56.391Z,41.63
2022-08-23T20:35:24.242Z,41.61
2022-08-23T20:37:52.116Z,41.60
2022-08-23T20:40:21.700Z,41.86
2022-08-23T20:42:51.023Z,42.24
2022-08-23T20:45:19.057Z,41.95
2022-08-23T20:47:48.471Z,42.56
2022-08-23T20:50:16.357Z,42.66
2022-08-23T20:52:44.232Z,42.55
2022-08-23T20:55:14.889Z,42.71
2022-08-23T20:57:42.823Z,43.19
2022-08-23T21:00:11.886Z,43.32
2022-08-23T21:02:39.827Z,43.20
2022-08-23T21:05:09.574Z,43.69
2022-08-23T21:07:37.987Z,43.23
2022-08-23T21:10:06.831Z,43.72
2022-08-23T21:12:34.991Z,43.85
2022-08-23T21:15:02.776Z,44.07
2022-08-23T21:17:30.566Z,43.84
2022-08-23T21:19:58.689Z,44.12
2022-08-23T21:22:32.016Z,44.18
2022-08-23T21:25:00.628Z,44.23
2022-08-23T21:27:29.008Z,44.77
2022-08-23T21:29:56.832Z,44.50
2022-08-23T21:32:24.710Z,44.61
2022-08-23T21:34:52.475Z,44.57
2022-08-23T21:37:20.345Z,44.49
2022-08-23T21:39:50.769Z,44.80
2022-08-23T21:42:23.491Z,44.45
2022-08-23T21:44:51.991Z,44.67
2022-08-23T21:47:20.656Z,44.42
2022-08-23T21:49:48.513Z,44.84
2022-08-23T21:52:16.410Z,44.93
2022-08-23T21:54:44.306Z,45.09
2022-08-23T21:57:13.572Z,45.04
2022-08-23T21:59:41.401Z,45.38
2022-08-23T22:02:09.625Z,45.17
2022-08-23T22:04:37.852Z,45.39
2022-08-23T22:07:06.105Z,45.99
2022-08-23T22:09:34.296Z,46.23
2022-08-23T22:12:02.207Z,46.00
2022-08-23T22:14:32.063Z,46.11
2022-08-23T22:17:00.976Z,46.77
2022-08-23T22:19:29.449Z,46.60
2022-08-23T22:21:57.465Z,47.07
2022-08-23T22:24:26.445Z,47.34
2022-08-23T22:26:55.410Z,47.43
2022-08-23T22:29:23.592Z,47.52
2022-08-23T22:31:52.905Z,47.91
2022-08-23T22:34:20.881Z,47.76
2022-08-23T22:36:52.109Z,48.11
2022-08-23T22:39:20.780Z,48.14
2022-08-23T22:41:48.715Z,48.21
2022-08-23T22:44:16.958Z,48.49
2022-08-23T22:46:45.107Z,48.61
2022-08-23T22:49:14.486Z,48.97
2022-08-23T22:51:42.908Z,48.65
2022-08-23T22:54:11.712Z,49.11
2022-08-23T22:56:42.518Z,49.08
2022-08-23T22:59:11.225Z,49.01
2022-08-23T23:01:41.809Z,49.10
2022-08-23T23:04:16.031Z,49.20
2022-08-23T23:06:45.722Z,49.83
2022-08-23T23:09:14.502Z,49.58
2022-08-23T23:11:43.817Z,49.93
2022-08-23T23:14:12.463Z,50.42
2022-08-23T23:16:41.489Z,49.99
2022-08-23T23:19:27.156Z,50.49
2022-08-23T23:21:58.696Z,50.56
2022-08-23T23:24:29.435Z,50.78
2022-08-23T23:26:58.067Z,50.98
2022-08-23T23:29:26.762Z,51.53
2022-08-23T23:31:54.980Z,51.48
2022-08-23T23:34:23.415Z,51.23
2022-08-23T23:36:55.220Z,52.40
2022-08-23T23:39:25.131Z,51.96
2022-08-23T23:41:53.110Z,51.64
2022-08-23T23:44:29.156Z,51.72
2022-08-23T23:46:59.488Z,51.92
2022-08-23T23:49:32.276Z,51.91
2022-08-23T23:52:03.213Z,52.28
2022-08-23T23:54:33.979Z,52.93
2022-08-23T23:57:02.246Z,52.83
2022-08-23T23:59:30.363Z,53.15
